createdAt,value
2022-07-29T00:01:00.376Z,13.10
2022-07-29T00:03:27.026Z,13.00
2022-07-29T00:05:54.116Z,13.00
2022-07-29T00:08:21.000Z,12.90
2022-07-29T00:10:47.862Z,12.90
2022-07-29T00:13:14.436Z,12.80
2022-07-29T00:15:41.197Z,12.80
2022-07-29T00:18:08.544Z,12.70
2022-07-29T00:20:35.195Z,12.60
2022-07-29T00:23:01.750Z,12.60
2022-07-29T00:25:28.338Z,12.60
2022-07-29T00:27:54.940Z,12.50
2022-07-29T00:30:21.576Z,12.50
2022-07-29T00:32:48.115Z,12.50
2022-07-29T00:35:33.624Z,12.40
2022-07-29T00:38:00.191Z,12.40
2022-07-29T00:40:28.838Z,12.40
2022-07-29T00:42:55.488Z,12.40
2022-07-29T00:45:23.051Z,12.40
2022-07-29T00:47:49.975Z,12.40
2022-07-29T00:50:16.711Z,12.40
2022-07-29T00:52:43.972Z,12.40
2022-07-29T00:55:15.527Z,12.40
2022-07-29T00:57:43.732Z,12.50
2022-07-29T01:00:13.700Z,12.60
2022-07-29T01:02:40.288Z,12.60
2022-07-29T01:05:08.260Z,12.60
2022-07-29T01:07:36.968Z,12.60
2022-07-29T01:10:06.267Z,12.60
2022-07-29T01:12:34.360Z,12.60
2022-07-29T01:15:02.849Z,12.70
2022-07-29T01:17:53.236Z,12.70
2022-07-29T01:20:40.384Z,12.70
2022-07-29T01:23:40.840Z,12.70
2022-07-29T01:26:32.398Z,12.70
2022-07-29T01:29:13.550Z,12.80
2022-07-29T01:32:27.600Z,12.80
2022-07-29T01:35:27.051Z,12.80
2022-07-29T01:38:18.369Z,12.90
2022-07-29T01:40:53.313Z,12.90
2022-07-29T01:43:32.315Z,12.90
2022-07-29T01:46:04.984Z,12.90
2022-07-29T01:48:54.249Z,13.00
2022-07-29T01:51:28.110Z,12.90
2022-07-29T01:54:11.636Z,13.00
2022-07-29T01:56:39.985Z,13.00
2022-07-29T01:59:08.250Z,13.00
2022-07-29T02:01:36.860Z,13.00
2022-07-29T02:04:06.156Z,13.10
2022-07-29T02:06:35.801Z,13.20
2022-07-29T02:09:04.652Z,13.10
2022-07-29T02:11:36.425Z,13.10
2022-07-29T02:14:04.725Z,13.10
2022-07-29T02:16:32.973Z,13.10
2022-07-29T02:19:02.495Z,13.10
2022-07-29T02:21:31.654Z,13.10
2022-07-29T02:24:01.715Z,13.10
2022-07-29T02:26:30.056Z,13.10
2022-07-29T02:28:58.152Z,13.10
2022-07-29T02:31:29.763Z,13.10
2022-07-29T02:33:57.815Z,13.10
2022-07-29T02:36:25.687Z,13.10
2022-07-29T02:38:54.248Z,13.10
2022-07-29T02:41:48.227Z,13.10
2022-07-29T02:44:17.640Z,13.10
2022-07-29T02:46:54.325Z,13.10
2022-07-29T02:49:36.331Z,13.10
2022-07-29T02:52:06.999Z,13.10
2022-07-29T02:55:01.026Z,13.10
2022-07-29T02:57:34.745Z,13.10
2022-07-29T03:00:06.672Z,13.10
2022-07-29T03:02:37.594Z,13.10
2022-07-29T03:05:07.385Z,13.10
2022-07-29T03:07:37.172Z,13.10
2022-07-29T03:10:05.271Z,13.10
2022-07-29T03:12:41.151Z,13.10
2022-07-29T03:15:09.198Z,13.10
2022-07-29T03:17:36.589Z,13.10
2022-07-29T03:20:04.000Z,13.20
2022-07-29T03:22:30.756Z,13.20
2022-07-29T03:24:57.366Z,13.20
2022-07-29T03:27:24.066Z,13.20
2022-07-29T03:29:50.762Z,13.20
2022-07-29T03:32:17.414Z,13.30
2022-07-29T03:34:50.528Z,13.30
2022-07-29T03:37:17.208Z,13.30
2022-07-29T03:39:45.021Z,13.30
2022-07-29T03:42:14.821Z,13.30
2022-07-29T03:44:44.884Z,13.30
2022-07-29T03:47:14.314Z,13.30
2022-07-29T03:49:41.758Z,13.30
2022-07-29T03:52:08.704Z,13.30
2022-07-29T03:54:35.525Z,13.30
2022-07-29T03:57:03.932Z,13.30
2022-07-29T03:59:32.525Z,13.30
2022-07-29T04:01:59.631Z,13.30
2022-07-29T04:04:27.345Z,13.30
2022-07-29T04:06:55.348Z,13.30
2022-07-29T04:09:21.956Z,13.40
2022-07-29T04:11:57.119Z,13.40
2022-07-29T04:14:31.569Z,13.30
2022-07-29T04:16:58.126Z,13.40
2022-07-29T04:19:24.720Z,13.40
2022-07-29T04:21:52.050Z,13.40
2022-07-29T04:24:19.247Z,13.40
2022-07-29T04:26:49.560Z,13.40
2022-07-29T04:29:16.275Z,13.40
2022-07-29T04:31:43.844Z,13.50
2022-07-29T04:34:10.944Z,13.50
2022-07-29T04:36:37.646Z,13.50
2022-07-29T04:39:04.503Z,13.60
2022-07-29T04:41:33.055Z,13.70
2022-07-29T04:44:01.951Z,13.70
2022-07-29T04:46:28.893Z,13.70
2022-07-29T04:48:55.643Z,13.70
2022-07-29T04:51:22.299Z,13.80
2022-07-29T04:53:48.870Z,13.80
2022-07-29T04:56:15.431Z,13.80
2022-07-29T04:58:41.997Z,13.90
2022-07-29T05:01:08.605Z,13.80
2022-07-29T05:03:35.293Z,14.10
2022-07-29T05:06:01.996Z,14.10
2022-07-29T05:08:28.607Z,14.20
2022-07-29T05:10:55.302Z,14.30
2022-07-29T05:13:21.844Z,14.40
2022-07-29T05:15:48.469Z,14.50
2022-07-29T05:18:15.078Z,14.50
2022-07-29T05:20:41.832Z,14.60
2022-07-29T05:23:08.519Z,14.60
2022-07-29T05:25:43.310Z,14.70
2022-07-29T05:28:12.244Z,14.70
2022-07-29T05:30:39.228Z,14.80
2022-07-29T05:33:05.815Z,14.80
2022-07-29T05:35:32.406Z,14.90
2022-07-29T05:37:58.957Z,14.90
2022-07-29T05:40:25.529Z,14.90
2022-07-29T05:42:52.148Z,14.90
2022-07-29T05:45:18.706Z,15.10
2022-07-29T05:47:45.309Z,15.10
2022-07-29T05:50:12.041Z,15.20
2022-07-29T05:52:38.680Z,15.30
2022-07-29T05:55:06.415Z,15.60
2022-07-29T05:57:33.007Z,15.60
2022-07-29T05:59:59.566Z,15.70
2022-07-29T06:02:26.168Z,15.80
2022-07-29T06:04:52.854Z,15.90
2022-07-29T06:07:19.516Z,15.90
2022-07-29T06:09:46.103Z,16.00
2022-07-29T06:12:12.696Z,16.00
2022-07-29T06:14:39.256Z,16.00
2022-07-29T06:17:06.545Z,16.10
2022-07-29T06:19:35.840Z,16.10
2022-07-29T06:22:02.412Z,16.20
2022-07-29T06:24:29.118Z,16.10
2022-07-29T06:26:55.993Z,16.20
2022-07-29T06:29:22.552Z,16.20
2022-07-29T06:31:49.185Z,16.20
2022-07-29T06:34:16.600Z,16.30
2022-07-29T06:36:44.376Z,16.30
2022-07-29T06:39:12.517Z,16.40
2022-07-29T06:41:39.146Z,16.50
2022-07-29T06:44:05.772Z,16.50
2022-07-29T06:46:33.317Z,16.40
2022-07-29T06:49:02.302Z,16.50
2022-07-29T06:51:29.099Z,16.60
2022-07-29T06:54:00.330Z,16.70
2022-07-29T06:56:31.024Z,16.80
2022-07-29T06:58:57.665Z,16.90
2022-07-29T07:01:24.305Z,17.00
2022-07-29T07:03:50.882Z,17.10
2022-07-29T07:06:17.596Z,17.20
2022-07-29T07:08:44.567Z,17.30
2022-07-29T07:11:11.162Z,17.40
2022-07-29T07:13:37.822Z,17.50
2022-07-29T07:16:05.141Z,17.60
2022-07-29T07:18:32.019Z,17.60
2022-07-29T07:20:59.081Z,17.70
2022-07-29T07:23:25.771Z,17.80
2022-07-29T07:25:52.403Z,17.90
2022-07-29T07:28:19.343Z,18.00
2022-07-29T07:30:52.035Z,18.00
2022-07-29T07:33:18.880Z,18.20
2022-07-29T07:35:45.525Z,18.40
2022-07-29T07:38:12.135Z,18.70
2022-07-29T07:40:38.785Z,19.00
2022-07-29T07:43:05.435Z,19.30
2022-07-29T07:45:33.962Z,19.40
2022-07-29T07:48:00.855Z,19.60
2022-07-29T07:50:27.569Z,19.70
2022-07-29T07:52:58.367Z,19.80
2022-07-29T07:55:25.846Z,19.90
2022-07-29T07:57:52.579Z,20.00
2022-07-29T08:00:19.166Z,20.30
2022-07-29T08:02:49.586Z,20.60
2022-07-29T08:05:19.060Z,21.10
2022-07-29T08:07:47.316Z,21.60
2022-07-29T08:10:15.427Z,21.90
2022-07-29T08:12:42.659Z,22.10
2022-07-29T08:15:09.725Z,22.20
2022-07-29T08:17:36.389Z,22.20
2022-07-29T08:20:03.995Z,22.10
2022-07-29T08:22:30.687Z,22.00
2022-07-29T08:24:57.329Z,22.00
2022-07-29T08:30:11.151Z,22.00
2022-07-29T08:32:53.049Z,21.80
2022-07-29T08:35:21.749Z,21.70
2022-07-29T08:37:48.751Z,21.70
2022-07-29T08:40:15.749Z,21.60
2022-07-29T08:42:42.563Z,21.60
2022-07-29T08:45:09.792Z,21.60
2022-07-29T08:47:40.607Z,21.60
2022-07-29T08:50:09.901Z,21.70
2022-07-29T08:52:41.526Z,21.70
2022-07-29T08:55:10.711Z,21.80
2022-07-29T08:57:39.371Z,21.80
2022-07-29T09:00:19.181Z,21.90
2022-07-29T09:02:52.520Z,22.00
2022-07-29T09:05:19.982Z,22.10
2022-07-29T09:07:48.881Z,22.30
2022-07-29T09:10:15.737Z,22.40
2022-07-29T09:12:42.479Z,22.50
2022-07-29T09:15:09.533Z,22.70
2022-07-29T09:17:46.939Z,22.80
2022-07-29T09:20:25.045Z,23.00
2022-07-29T09:22:54.350Z,23.10
2022-07-29T09:25:38.010Z,23.20
2022-07-29T09:28:15.658Z,23.20
2022-07-29T09:31:00.354Z,23.20
2022-07-29T09:33:37.386Z,23.10
2022-07-29T09:36:10.621Z,23.00
2022-07-29T09:38:40.414Z,23.10
2022-07-29T09:41:08.930Z,23.10
2022-07-29T09:43:35.555Z,23.10
2022-07-29T09:46:12.821Z,23.10
2022-07-29T09:48:39.559Z,23.10
2022-07-29T09:51:07.380Z,23.10
2022-07-29T09:53:38.541Z,23.30
2022-07-29T09:56:05.934Z,23.40
2022-07-29T09:58:35.756Z,23.60
2022-07-29T10:01:03.616Z,23.70
2022-07-29T10:03:30.239Z,23.90
2022-07-29T10:06:11.166Z,24.00
2022-07-29T10:08:38.550Z,24.20
2022-07-29T10:11:16.684Z,24.30
2022-07-29T10:13:44.743Z,24.40
2022-07-29T10:16:12.278Z,24.40
2022-07-29T10:18:44.682Z,24.40
2022-07-29T10:21:11.375Z,24.40
2022-07-29T10:24:01.382Z,24.60
2022-07-29T10:26:29.894Z,24.60
2022-07-29T10:28:56.722Z,24.60
2022-07-29T10:31:36.852Z,24.60
2022-07-29T10:34:20.003Z,24.60
2022-07-29T10:37:01.977Z,24.70
2022-07-29T10:39:49.580Z,24.70
2022-07-29T10:42:33.258Z,24.80
2022-07-29T10:45:01.668Z,24.80
2022-07-29T10:47:28.398Z,24.80
2022-07-29T10:50:10.081Z,24.90
2022-07-29T10:52:54.506Z,25.00
2022-07-29T10:55:35.869Z,25.10
2022-07-29T10:58:15.776Z,25.20
2022-07-29T11:00:45.619Z,25.20
2022-07-29T11:03:41.446Z,25.30
2022-07-29T11:06:16.659Z,25.30
2022-07-29T11:08:44.674Z,25.30
2022-07-29T11:11:32.987Z,25.30
2022-07-29T11:14:02.012Z,25.30
2022-07-29T11:17:05.981Z,25.30
2022-07-29T11:19:33.258Z,25.30
2022-07-29T11:22:00.503Z,25.40
2022-07-29T11:24:34.931Z,25.30
2022-07-29T11:27:20.547Z,25.30
2022-07-29T11:29:55.868Z,25.40
2022-07-29T11:32:25.383Z,26.10
2022-07-29T11:35:17.303Z,25.50
2022-07-29T11:37:52.751Z,25.50
2022-07-29T11:40:24.479Z,25.50
2022-07-29T11:42:52.337Z,25.50
2022-07-29T11:45:42.155Z,25.50
2022-07-29T11:51:12.072Z,25.60
2022-07-29T11:53:48.236Z,25.60
2022-07-29T11:56:22.435Z,25.60
2022-07-29T11:59:02.036Z,25.70
2022-07-29T12:01:28.829Z,25.70
2022-07-29T12:04:04.824Z,25.70
2022-07-29T12:06:35.093Z,25.60
2022-07-29T12:07:03.555Z,25.60
2022-07-29T12:09:08.288Z,25.60
2022-07-29T12:11:41.069Z,25.70
2022-07-29T12:14:07.670Z,25.70
2022-07-29T12:16:38.211Z,25.90
2022-07-29T12:19:05.547Z,26.00
2022-07-29T12:21:54.050Z,26.20
2022-07-29T12:24:26.825Z,26.30
2022-07-29T12:26:59.199Z,26.40
2022-07-29T12:29:34.728Z,26.60
2022-07-29T12:32:03.501Z,26.70
2022-07-29T12:34:30.782Z,26.70
2022-07-29T12:36:57.560Z,26.80
2022-07-29T12:39:27.253Z,26.90
2022-07-29T12:42:04.670Z,27.00
2022-07-29T12:44:52.098Z,27.10
2022-07-29T12:47:19.589Z,27.20
2022-07-29T12:49:47.623Z,27.30
2022-07-29T12:52:32.103Z,27.40
2022-07-29T12:54:58.982Z,27.40
2022-07-29T12:57:26.311Z,27.50
2022-07-29T13:00:08.806Z,27.50
2022-07-29T13:02:35.862Z,27.40
2022-07-29T13:05:05.729Z,27.50
2022-07-29T13:07:55.449Z,27.50
2022-07-29T13:10:23.934Z,27.50
2022-07-29T13:13:04.436Z,27.70
2022-07-29T13:15:31.428Z,27.70
2022-07-29T13:17:58.029Z,27.90
2022-07-29T13:20:28.231Z,28.10
2022-07-29T13:22:54.780Z,28.10
2022-07-29T13:25:32.656Z,28.30
2022-07-29T13:28:00.445Z,28.40
2022-07-29T13:30:27.077Z,28.40
2022-07-29T13:32:53.813Z,28.30
2022-07-29T13:35:21.127Z,28.30
2022-07-29T13:37:47.735Z,28.30
2022-07-29T13:40:14.974Z,28.20
2022-07-29T13:42:42.298Z,28.10
2022-07-29T13:45:11.543Z,28.00
2022-07-29T13:47:38.818Z,28.00
2022-07-29T13:50:07.273Z,27.90
2022-07-29T13:52:34.521Z,27.80
2022-07-29T13:55:01.678Z,27.70
2022-07-29T13:57:29.022Z,27.70
2022-07-29T13:59:56.630Z,27.90
2022-07-29T14:02:25.680Z,28.00
2022-07-29T14:04:54.364Z,28.10
2022-07-29T14:07:21.131Z,28.20
2022-07-29T14:09:47.691Z,28.30
2022-07-29T14:12:14.309Z,28.30
2022-07-29T14:14:40.920Z,28.40
2022-07-29T14:17:07.913Z,28.40
2022-07-29T14:19:36.592Z,28.30
2022-07-29T14:22:04.606Z,28.30
2022-07-29T14:24:32.146Z,28.10
2022-07-29T14:26:59.043Z,27.90
2022-07-29T14:29:37.354Z,27.90
2022-07-29T14:32:06.991Z,27.90
2022-07-29T14:34:34.308Z,27.90
2022-07-29T14:37:00.844Z,28.00
2022-07-29T14:39:32.002Z,28.00
2022-07-29T14:42:00.348Z,28.00
2022-07-29T14:44:31.895Z,27.90
2022-07-29T14:47:00.823Z,27.90
2022-07-29T14:49:30.484Z,27.70
2022-07-29T14:51:57.208Z,27.60
2022-07-29T14:54:24.040Z,27.50
2022-07-29T14:56:51.771Z,27.50
2022-07-29T14:59:18.332Z,27.50
2022-07-29T15:01:44.936Z,27.60
2022-07-29T15:04:11.522Z,27.70
2022-07-29T15:06:38.785Z,27.60
2022-07-29T15:09:05.468Z,27.60
2022-07-29T15:11:32.080Z,27.40
2022-07-29T15:14:05.171Z,27.30
2022-07-29T15:16:31.868Z,27.20
2022-07-29T15:18:58.753Z,27.10
2022-07-29T15:21:28.244Z,27.00
2022-07-29T15:23:54.799Z,26.90
2022-07-29T15:26:21.434Z,26.80
2022-07-29T15:28:48.827Z,26.70
2022-07-29T15:31:15.492Z,26.70
2022-07-29T15:33:42.107Z,26.60
2022-07-29T15:36:08.802Z,26.60
2022-07-29T15:38:35.344Z,26.60
2022-07-29T15:41:08.634Z,26.50
2022-07-29T15:43:36.116Z,26.40
2022-07-29T15:46:21.642Z,26.40
2022-07-29T15:48:48.427Z,26.30
2022-07-29T15:51:15.222Z,26.30
2022-07-29T15:53:41.862Z,26.30
2022-07-29T15:56:08.456Z,26.30
2022-07-29T15:58:35.048Z,26.30
2022-07-29T16:01:01.807Z,26.30
2022-07-29T16:03:28.480Z,26.30
2022-07-29T16:05:55.105Z,26.30
2022-07-29T16:08:21.657Z,26.30
2022-07-29T16:10:48.472Z,26.30
2022-07-29T16:13:17.863Z,26.30
2022-07-29T16:15:45.972Z,26.20
2022-07-29T16:18:30.089Z,26.20
2022-07-29T16:20:57.173Z,26.20
2022-07-29T16:23:24.602Z,26.20
2022-07-29T16:25:59.810Z,26.10
2022-07-29T16:28:28.318Z,26.10
2022-07-29T16:30:54.877Z,26.00
2022-07-29T16:33:21.456Z,26.00
2022-07-29T16:35:47.998Z,25.90
2022-07-29T16:38:14.768Z,25.90
2022-07-29T16:40:41.900Z,25.80
2022-07-29T16:43:08.738Z,25.80
2022-07-29T16:45:43.896Z,25.80
2022-07-29T16:48:12.369Z,25.70
2022-07-29T16:50:39.482Z,25.70
2022-07-29T16:53:06.204Z,25.80
2022-07-29T16:55:32.792Z,25.80
2022-07-29T16:57:59.595Z,25.80
2022-07-29T17:00:26.188Z,25.80
2022-07-29T17:02:52.738Z,25.80
2022-07-29T17:05:19.289Z,25.90
2022-07-29T17:07:45.827Z,25.90
2022-07-29T17:10:12.456Z,25.80
2022-07-29T17:12:40.664Z,25.80
2022-07-29T17:15:10.094Z,25.90
2022-07-29T17:17:55.288Z,25.80
2022-07-29T17:20:23.327Z,25.70
2022-07-29T17:22:49.973Z,25.70
2022-07-29T17:25:20.980Z,25.70
2022-07-29T17:27:49.513Z,25.70
2022-07-29T17:30:16.250Z,25.70
2022-07-29T17:32:42.830Z,25.70
2022-07-29T17:35:28.953Z,25.70
2022-07-29T17:37:56.145Z,25.60
2022-07-29T17:40:23.013Z,25.60
2022-07-29T17:42:49.914Z,25.50
2022-07-29T17:45:16.571Z,25.50
2022-07-29T17:47:44.455Z,25.40
2022-07-29T17:50:11.049Z,25.30
2022-07-29T17:52:38.997Z,25.30
2022-07-29T17:55:06.943Z,25.20
2022-07-29T17:57:33.989Z,25.20
2022-07-29T18:00:00.541Z,25.20
2022-07-29T18:02:28.320Z,25.10
2022-07-29T18:04:55.249Z,25.10
2022-07-29T18:07:21.858Z,25.00
2022-07-29T18:09:48.443Z,25.00
2022-07-29T18:12:15.199Z,24.90
2022-07-29T18:14:41.749Z,24.90
2022-07-29T18:17:08.612Z,24.80
2022-07-29T18:19:35.214Z,24.80
2022-07-29T18:22:04.933Z,24.70
2022-07-29T18:24:32.630Z,24.60
2022-07-29T18:26:59.554Z,24.60
2022-07-29T18:29:28.986Z,24.50
2022-07-29T18:31:55.902Z,24.40
2022-07-29T18:34:22.474Z,24.40
2022-07-29T18:36:49.018Z,24.40
2022-07-29T18:39:20.069Z,24.30
2022-07-29T18:41:50.243Z,24.20
2022-07-29T18:44:22.740Z,24.20
2022-07-29T18:46:51.014Z,24.20
2022-07-29T18:49:18.011Z,24.10
2022-07-29T18:51:44.662Z,24.00
2022-07-29T18:54:11.247Z,23.90
2022-07-29T18:56:37.856Z,23.80
2022-07-29T18:59:04.875Z,23.70
2022-07-29T19:01:32.760Z,23.70
2022-07-29T19:04:00.077Z,23.60
2022-07-29T19:06:26.636Z,23.50
2022-07-29T19:08:53.407Z,23.40
2022-07-29T19:11:19.977Z,23.40
2022-07-29T19:13:46.622Z,23.20
2022-07-29T19:16:14.058Z,23.20
2022-07-29T19:18:41.516Z,23.10
2022-07-29T19:21:08.218Z,23.00
2022-07-29T19:24:07.482Z,22.90
2022-07-29T19:26:21.408Z,22.80
2022-07-29T19:28:48.822Z,22.70
2022-07-29T19:31:16.017Z,22.60
2022-07-29T19:33:42.744Z,22.50
2022-07-29T19:36:09.373Z,22.50
2022-07-29T19:38:38.085Z,22.40
2022-07-29T19:41:06.107Z,22.30
2022-07-29T19:43:50.504Z,22.20
2022-07-29T19:46:19.865Z,22.10
2022-07-29T19:48:46.495Z,22.00
2022-07-29T19:51:13.192Z,21.90
2022-07-29T19:53:39.803Z,21.80
2022-07-29T19:56:06.387Z,21.80
2022-07-29T19:58:35.752Z,21.80
2022-07-29T20:01:03.135Z,21.70
2022-07-29T20:03:40.385Z,21.60
2022-07-29T20:06:07.541Z,21.50
2022-07-29T20:08:34.322Z,21.40
2022-07-29T20:11:01.005Z,21.30
2022-07-29T20:13:27.647Z,21.20
2022-07-29T20:15:54.290Z,21.10
2022-07-29T20:18:20.982Z,21.00
2022-07-29T20:20:49.092Z,21.00
2022-07-29T20:23:16.409Z,21.00
2022-07-29T20:25:43.300Z,21.00
2022-07-29T20:28:09.957Z,20.90
2022-07-29T20:30:38.417Z,20.90
2022-07-29T20:33:05.467Z,20.90
2022-07-29T20:35:32.047Z,20.90
2022-07-29T20:37:59.684Z,20.80
2022-07-29T20:40:26.974Z,20.80
2022-07-29T20:42:54.689Z,20.70
2022-07-29T20:45:22.418Z,20.60
2022-07-29T20:47:50.571Z,20.60
2022-07-29T20:50:17.652Z,20.50
2022-07-29T20:52:44.392Z,20.50
2022-07-29T20:55:11.000Z,20.60
2022-07-29T20:57:39.291Z,20.60
2022-07-29T21:00:07.412Z,20.50
2022-07-29T21:02:34.078Z,20.50
2022-07-29T21:05:01.054Z,20.50
2022-07-29T21:07:27.909Z,20.50
2022-07-29T21:09:54.518Z,20.50
2022-07-29T21:12:21.104Z,20.40
2022-07-29T21:14:48.035Z,19.30
2022-07-29T21:17:15.471Z,20.40
2022-07-29T21:19:42.257Z,20.50
2022-07-29T21:22:09.513Z,20.40
2022-07-29T21:24:36.122Z,20.30
2022-07-29T21:27:21.966Z,20.30
2022-07-29T21:29:48.884Z,20.30
2022-07-29T21:32:29.449Z,20.30
2022-07-29T21:34:57.541Z,20.20
2022-07-29T21:37:24.151Z,20.20
2022-07-29T21:39:50.945Z,20.20
2022-07-29T21:42:17.539Z,20.20
2022-07-29T21:44:44.177Z,20.10
2022-07-29T21:47:11.726Z,20.00
2022-07-29T21:49:38.468Z,20.00
2022-07-29T21:52:05.440Z,20.00
2022-07-29T21:54:32.052Z,19.90
2022-07-29T21:56:58.699Z,19.90
2022-07-29T21:59:27.509Z,19.80
2022-07-29T22:01:54.492Z,19.80
2022-07-29T22:04:21.228Z,19.80
2022-07-29T22:06:48.122Z,19.70
2022-07-29T22:09:14.709Z,19.60
2022-07-29T22:11:41.960Z,19.80
2022-07-29T22:14:08.558Z,19.70
2022-07-29T22:16:35.396Z,19.70
2022-07-29T22:19:03.937Z,19.70
2022-07-29T22:21:30.804Z,19.70
2022-07-29T22:23:57.453Z,19.50
2022-07-29T22:26:24.032Z,19.60
2022-07-29T22:28:50.656Z,19.60
2022-07-29T22:31:17.304Z,19.70
2022-07-29T22:33:43.960Z,19.60
2022-07-29T22:36:10.827Z,19.60
2022-07-29T22:38:37.395Z,19.70
2022-07-29T22:41:04.013Z,19.60
2022-07-29T22:43:30.657Z,19.60
2022-07-29T22:45:57.281Z,19.60
2022-07-29T22:48:23.852Z,19.50
2022-07-29T22:50:50.421Z,19.60
2022-07-29T22:53:16.971Z,19.60
2022-07-29T22:55:45.282Z,19.60
2022-07-29T22:58:11.914Z,19.50
2022-07-29T23:00:38.619Z,19.40
2022-07-29T23:03:05.163Z,19.40
2022-07-29T23:05:32.572Z,19.40
2022-07-29T23:07:59.501Z,19.40
2022-07-29T23:10:26.208Z,19.40
2022-07-29T23:12:52.797Z,19.40
2022-07-29T23:15:19.562Z,19.30
2022-07-29T23:17:46.184Z,19.30
2022-07-29T23:20:14.821Z,19.20
2022-07-29T23:22:42.055Z,19.10
2022-07-29T23:25:08.769Z,19.20
2022-07-29T23:27:35.515Z,19.10
2022-07-29T23:30:02.637Z,19.00
2022-07-29T23:32:29.228Z,19.00
2022-07-29T23:34:55.806Z,19.00
2022-07-29T23:37:22.574Z,18.90
2022-07-29T23:39:49.152Z,18.90
2022-07-29T23:42:15.726Z,19.00
2022-07-29T23:44:42.307Z,18.90
2022-07-29T23:47:08.905Z,18.90
2022-07-29T23:49:35.791Z,18.80
2022-07-29T23:52:02.338Z,18.80
2022-07-29T23:54:28.894Z,18.70
2022-07-29T23:56:57.564Z,18.70
2022-07-29T23:59:24.638Z,18.70
